sensor_id;sensor_type;location;lat;lon;timestamp;P1;durP1;ratioP1;P2;durP2;ratioP2
12689;SDS011;6409;56.294;14.480;2023-07-09T00:01:41;0.50;;;0.50;;
12689;SDS011;6409;56.294;14.480;2023-07-09T00:04:09;0.60;;;0.60;;
12689;SDS011;6409;56.294;14.480;2023-07-09T00:06:36;0.60;;;0.60;;
12689;SDS011;6409;56.294;14.480;2023-07-09T00:09:04;0.60;;;0.60;;
12689;SDS011;6409;56.294;14.480;2023-07-09T00:11:31;0.30;;;0.30;;
12689;SDS011;6409;56.294;14.480;2023-07-09T00:13:58;0.40;;;0.40;;
12689;SDS011;6409;56.294;14.480;2023-07-09T00:16:26;0.30;;;0.30;;
12689;SDS011;6409;56.294;14.480;2023-07-09T00:18:54;0.30;;;0.30;;
12689;SDS011;6409;56.294;14.480;2023-07-09T00:21:21;0.30;;;0.30;;
12689;SDS011;6409;56.294;14.480;2023-07-09T00:23:48;0.30;;;0.30;;
12689;SDS011;6409;56.294;14.480;2023-07-09T00:26:15;0.30;;;0.30;;
12689;SDS011;6409;56.294;14.480;2023-07-09T00:28:43;0.30;;;0.30;;
12689;SDS011;6409;56.294;14.480;2023-07-09T00:31:10;0.30;;;0.30;;
12689;SDS011;6409;56.294;14.480;2023-07-09T00:33:41;0.30;;;0.30;;
12689;SDS011;6409;56.294;14.480;2023-07-09T00:36:10;0.30;;;0.30;;
12689;SDS011;6409;56.294;14.480;2023-07-09T00:38:40;0.30;;;0.30;;
12689;SDS011;6409;56.294;14.480;2023-07-09T00:41:15;0.30;;;0.30;;
12689;SDS011;6409;56.294;14.480;2023-07-09T00:43:44;0.30;;;0.30;;
12689;SDS011;6409;56.294;14.480;2023-07-09T00:46:14;0.30;;;0.30;;
12689;SDS011;6409;56.294;14.480;2023-07-09T00:48:45;0.30;;;0.30;;
12689;SDS011;6409;56.294;14.480;2023-07-09T00:51:13;0.30;;;0.30;;
12689;SDS011;6409;56.294;14.480;2023-07-09T00:53:41;0.30;;;0.30;;
12689;SDS011;6409;56.294;14.480;2023-07-09T00:56:11;0.30;;;0.30;;
12689;SDS011;6409;56.294;14.480;2023-07-09T00:58:39;0.30;;;0.30;;
12689;SDS011;6409;56.294;14.480;2023-07-09T01:01:09;0.30;;;0.30;;
12689;SDS011;6409;56.294;14.480;2023-07-09T01:03:38;0.30;;;0.30;;
12689;SDS011;6409;56.294;14.480;2023-07-09T01:06:08;0.30;;;0.30;;
12689;SDS011;6409;56.294;14.480;2023-07-09T01:08:37;0.30;;;0.30;;
12689;SDS011;6409;56.294;14.480;2023-07-09T01:11:13;0.40;;;0.40;;
12689;SDS011;6409;56.294;14.480;2023-07-09T01:13:46;0.30;;;0.30;;
12689;SDS011;6409;56.294;14.480;2023-07-09T01:16:16;0.30;;;0.30;;
12689;SDS011;6409;56.294;14.480;2023-07-09T01:18:43;0.30;;;0.30;;
12689;SDS011;6409;56.294;14.480;2023-07-09T01:21:11;0.30;;;0.30;;
12689;SDS011;6409;56.294;14.480;2023-07-09T01:23:40;0.30;;;0.30;;
12689;SDS011;6409;56.294;14.480;2023-07-09T01:26:09;0.30;;;0.30;;
12689;SDS011;6409;56.294;14.480;2023-07-09T01:28:36;0.30;;;0.30;;
12689;SDS011;6409;56.294;14.480;2023-07-09T01:31:08;0.30;;;0.30;;
12689;SDS011;6409;56.294;14.480;2023-07-09T01:33:36;0.30;;;0.30;;
12689;SDS011;6409;56.294;14.480;2023-07-09T01:36:04;0.30;;;0.30;;
12689;SDS011;6409;56.294;14.480;2023-07-09T01:38:33;0.30;;;0.30;;
12689;SDS011;6409;56.294;14.480;2023-07-09T01:41:00;0.30;;;0.30;;
12689;SDS011;6409;56.294;14.480;2023-07-09T01:43:28;0.30;;;0.30;;
12689;SDS011;6409;56.294;14.480;2023-07-09T01:45:55;0.30;;;0.30;;
12689;SDS011;6409;56.294;14.480;2023-07-09T01:48:23;0.30;;;0.30;;
12689;SDS011;6409;56.294;14.480;2023-07-09T01:50:50;0.30;;;0.30;;
12689;SDS011;6409;56.294;14.480;2023-07-09T01:53:18;0.30;;;0.30;;
12689;SDS011;6409;56.294;14.480;2023-07-09T01:55:50;0.30;;;0.30;;
12689;SDS011;6409;56.294;14.480;2023-07-09T01:58:17;0.30;;;0.30;;
12689;SDS011;6409;56.294;14.480;2023-07-09T02:00:44;0.30;;;0.30;;
12689;SDS011;6409;56.294;14.480;2023-07-09T02:03:14;0.40;;;0.40;;
12689;SDS011;6409;56.294;14.480;2023-07-09T02:05:42;0.30;;;0.30;;
12689;SDS011;6409;56.294;14.480;2023-07-09T02:08:10;0.30;;;0.30;;
12689;SDS011;6409;56.294;14.480;2023-07-09T02:10:37;0.30;;;0.30;;
12689;SDS011;6409;56.294;14.480;2023-07-09T02:13:05;0.30;;;0.30;;
12689;SDS011;6409;56.294;14.480;2023-07-09T02:15:32;0.30;;;0.30;;
12689;SDS011;6409;56.294;14.480;2023-07-09T02:17:59;0.30;;;0.30;;
12689;SDS011;6409;56.294;14.480;2023-07-09T02:20:26;0.20;;;0.20;;
12689;SDS011;6409;56.294;14.480;2023-07-09T02:22:53;0.30;;;0.30;;
12689;SDS011;6409;56.294;14.480;2023-07-09T02:25:20;0.30;;;0.30;;
12689;SDS011;6409;56.294;14.480;2023-07-09T02:27:47;0.30;;;0.30;;
12689;SDS011;6409;56.294;14.480;2023-07-09T02:30:16;0.30;;;0.30;;
12689;SDS011;6409;56.294;14.480;2023-07-09T02:32:43;0.30;;;0.30;;
12689;SDS011;6409;56.294;14.480;2023-07-09T02:35:09;0.30;;;0.30;;
12689;SDS011;6409;56.294;14.480;2023-07-09T02:37:36;0.30;;;0.30;;
12689;SDS011;6409;56.294;14.480;2023-07-09T02:40:04;0.30;;;0.30;;
12689;SDS011;6409;56.294;14.480;2023-07-09T02:42:31;0.30;;;0.30;;
12689;SDS011;6409;56.294;14.480;2023-07-09T02:44:58;0.30;;;0.30;;
12689;SDS011;6409;56.294;14.480;2023-07-09T02:47:27;0.30;;;0.30;;
12689;SDS011;6409;56.294;14.480;2023-07-09T02:49:54;0.30;;;0.30;;
12689;SDS011;6409;56.294;14.480;2023-07-09T02:52:20;0.30;;;0.30;;
12689;SDS011;6409;56.294;14.480;2023-07-09T02:54:47;0.40;;;0.40;;
12689;SDS011;6409;56.294;14.480;2023-07-09T02:57:14;0.40;;;0.40;;
12689;SDS011;6409;56.294;14.480;2023-07-09T02:59:41;0.40;;;0.40;;
12689;SDS011;6409;56.294;14.480;2023-07-09T03:02:08;0.30;;;0.30;;
12689;SDS011;6409;56.294;14.480;2023-07-09T03:04:37;0.40;;;0.40;;
12689;SDS011;6409;56.294;14.480;2023-07-09T03:07:04;0.40;;;0.40;;
12689;SDS011;6409;56.294;14.480;2023-07-09T03:09:32;0.40;;;0.40;;
12689;SDS011;6409;56.294;14.480;2023-07-09T03:11:59;0.40;;;0.40;;
12689;SDS011;6409;56.294;14.480;2023-07-09T03:14:26;0.40;;;0.40;;
12689;SDS011;6409;56.294;14.480;2023-07-09T03:16:53;0.30;;;0.30;;
12689;SDS011;6409;56.294;14.480;2023-07-09T03:19:20;0.30;;;0.30;;
12689;SDS011;6409;56.294;14.480;2023-07-09T03:21:49;0.30;;;0.30;;
12689;SDS011;6409;56.294;14.480;2023-07-09T03:24:16;0.30;;;0.30;;
12689;SDS011;6409;56.294;14.480;2023-07-09T03:26:43;0.30;;;0.30;;
12689;SDS011;6409;56.294;14.480;2023-07-09T03:29:10;0.30;;;0.30;;
12689;SDS011;6409;56.294;14.480;2023-07-09T03:31:37;0.30;;;0.30;;
12689;SDS011;6409;56.294;14.480;2023-07-09T03:34:04;0.30;;;0.30;;
12689;SDS011;6409;56.294;14.480;2023-07-09T03:36:31;0.30;;;0.30;;
12689;SDS011;6409;56.294;14.480;2023-07-09T03:39:00;0.30;;;0.30;;
12689;SDS011;6409;56.294;14.480;2023-07-09T03:41:27;0.30;;;0.30;;
12689;SDS011;6409;56.294;14.480;2023-07-09T03:43:54;0.30;;;0.30;;
12689;SDS011;6409;56.294;14.480;2023-07-09T03:46:21;0.30;;;0.30;;
12689;SDS011;6409;56.294;14.480;2023-07-09T03:48:48;0.30;;;0.30;;
12689;SDS011;6409;56.294;14.480;2023-07-09T03:51:15;0.30;;;0.30;;
12689;SDS011;6409;56.294;14.480;2023-07-09T03:53:43;0.30;;;0.30;;
12689;SDS011;6409;56.294;14.480;2023-07-09T03:56:11;0.30;;;0.30;;
12689;SDS011;6409;56.294;14.480;2023-07-09T03:58:38;0.30;;;0.30;;
12689;SDS011;6409;56.294;14.480;2023-07-09T04:01:05;0.30;;;0.30;;
12689;SDS011;6409;56.294;14.480;2023-07-09T04:03:32;0.30;;;0.30;;
12689;SDS011;6409;56.294;14.480;2023-07-09T04:05:59;0.30;;;0.30;;
12689;SDS011;6409;56.294;14.480;2023-07-09T04:08:26;0.30;;;0.30;;
12689;SDS011;6409;56.294;14.480;2023-07-09T04:10:53;0.30;;;0.30;;
12689;SDS011;6409;56.294;14.480;2023-07-09T04:13:22;0.30;;;0.30;;
12689;SDS011;6409;56.294;14.480;2023-07-09T04:15:49;0.30;;;0.30;;
12689;SDS011;6409;56.294;14.480;2023-07-09T04:18:16;0.30;;;0.30;;
12689;SDS011;6409;56.294;14.480;2023-07-09T04:20:43;0.30;;;0.30;;
12689;SDS011;6409;56.294;14.480;2023-07-09T04:23:15;0.30;;;0.30;;
12689;SDS011;6409;56.294;14.480;2023-07-09T04:25:42;0.30;;;0.30;;
12689;SDS011;6409;56.294;14.480;2023-07-09T04:28:09;0.30;;;0.30;;
12689;SDS011;6409;56.294;14.480;2023-07-09T04:30:37;0.30;;;0.30;;
12689;SDS011;6409;56.294;14.480;2023-07-09T04:33:05;0.30;;;0.30;;
12689;SDS011;6409;56.294;14.480;2023-07-09T04:35:32;0.30;;;0.30;;
12689;SDS011;6409;56.294;14.480;2023-07-09T04:37:59;0.30;;;0.30;;
12689;SDS011;6409;56.294;14.480;2023-07-09T04:40:25;0.27;;;0.27;;
12689;SDS011;6409;56.294;14.480;2023-07-09T04:42:52;0.30;;;0.30;;
12689;SDS011;6409;56.294;14.480;2023-07-09T04:45:19;0.30;;;0.30;;
12689;SDS011;6409;56.294;14.480;2023-07-09T04:47:48;0.30;;;0.30;;
12689;SDS011;6409;56.294;14.480;2023-07-09T04:50:14;0.30;;;0.30;;
12689;SDS011;6409;56.294;14.480;2023-07-09T04:52:41;0.30;;;0.30;;
12689;SDS011;6409;56.294;14.480;2023-07-09T04:55:08;0.30;;;0.30;;
12689;SDS011;6409;56.294;14.480;2023-07-09T04:57:35;0.30;;;0.30;;
12689;SDS011;6409;56.294;14.480;2023-07-09T05:00:03;0.30;;;0.30;;
12689;SDS011;6409;56.294;14.480;2023-07-09T05:02:30;0.30;;;0.30;;
12689;SDS011;6409;56.294;14.480;2023-07-09T05:04:59;0.30;;;0.30;;
12689;SDS011;6409;56.294;14.480;2023-07-09T05:07:26;0.30;;;0.30;;
12689;SDS011;6409;56.294;14.480;2023-07-09T05:09:53;0.30;;;0.30;;
12689;SDS011;6409;56.294;14.480;2023-07-09T05:12:20;0.30;;;0.30;;
12689;SDS011;6409;56.294;14.480;2023-07-09T05:14:46;0.30;;;0.30;;
12689;SDS011;6409;56.294;14.480;2023-07-09T05:17:14;0.30;;;0.30;;
12689;SDS011;6409;56.294;14.480;2023-07-09T05:19:40;0.30;;;0.30;;
12689;SDS011;6409;56.294;14.480;2023-07-09T05:22:09;0.30;;;0.30;;
12689;SDS011;6409;56.294;14.480;2023-07-09T05:24:36;0.30;;;0.30;;
12689;SDS011;6409;56.294;14.480;2023-07-09T05:27:03;0.30;;;0.30;;
12689;SDS011;6409;56.294;14.480;2023-07-09T05:29:30;0.30;;;0.30;;
12689;SDS011;6409;56.294;14.480;2023-07-09T05:31:57;0.30;;;0.30;;
12689;SDS011;6409;56.294;14.480;2023-07-09T05:34:24;0.30;;;0.30;;
12689;SDS011;6409;56.294;14.480;2023-07-09T05:36:51;0.30;;;0.30;;
12689;SDS011;6409;56.294;14.480;2023-07-09T05:39:19;0.30;;;0.30;;
12689;SDS011;6409;56.294;14.480;2023-07-09T05:41:46;0.30;;;0.30;;
12689;SDS011;6409;56.294;14.480;2023-07-09T05:44:13;0.30;;;0.30;;
12689;SDS011;6409;56.294;14.480;2023-07-09T05:46:40;0.30;;;0.30;;
12689;SDS011;6409;56.294;14.480;2023-07-09T05:49:07;0.30;;;0.30;;
12689;SDS011;6409;56.294;14.480;2023-07-09T05:51:34;0.60;;;0.60;;
12689;SDS011;6409;56.294;14.480;2023-07-09T05:54:01;0.60;;;0.60;;
12689;SDS011;6409;56.294;14.480;2023-07-09T05:56:29;0.60;;;0.60;;
12689;SDS011;6409;56.294;14.480;2023-07-09T05:58:56;0.70;;;0.70;;
12689;SDS011;6409;56.294;14.480;2023-07-09T06:01:24;0.70;;;0.70;;
12689;SDS011;6409;56.294;14.480;2023-07-09T06:03:51;0.70;;;0.70;;
12689;SDS011;6409;56.294;14.480;2023-07-09T06:06:19;0.77;;;0.77;;
12689;SDS011;6409;56.294;14.480;2023-07-09T06:08:47;0.80;;;0.80;;
12689;SDS011;6409;56.294;14.480;2023-07-09T06:11:15;0.80;;;0.80;;
12689;SDS011;6409;56.294;14.480;2023-07-09T06:13:45;0.60;;;0.60;;
12689;SDS011;6409;56.294;14.480;2023-07-09T06:16:12;0.70;;;0.70;;
12689;SDS011;6409;56.294;14.480;2023-07-09T06:18:39;0.60;;;0.60;;
12689;SDS011;6409;56.294;14.480;2023-07-09T06:21:06;0.60;;;0.60;;
12689;SDS011;6409;56.294;14.480;2023-07-09T06:23:35;0.60;;;0.60;;
12689;SDS011;6409;56.294;14.480;2023-07-09T06:26:02;0.70;;;0.70;;
12689;SDS011;6409;56.294;14.480;2023-07-09T06:28:29;0.80;;;0.80;;
12689;SDS011;6409;56.294;14.480;2023-07-09T06:30:58;0.80;;;0.80;;
12689;SDS011;6409;56.294;14.480;2023-07-09T06:33:25;0.80;;;0.80;;
12689;SDS011;6409;56.294;14.480;2023-07-09T06:35:53;0.70;;;0.70;;
12689;SDS011;6409;56.294;14.480;2023-07-09T06:38:22;0.70;;;0.70;;
12689;SDS011;6409;56.294;14.480;2023-07-09T06:40:49;0.80;;;0.80;;
12689;SDS011;6409;56.294;14.480;2023-07-09T06:43:16;0.80;;;0.80;;
12689;SDS011;6409;56.294;14.480;2023-07-09T06:45:50;0.77;;;0.77;;
12689;SDS011;6409;56.294;14.480;2023-07-09T06:48:19;0.80;;;0.80;;
12689;SDS011;6409;56.294;14.480;2023-07-09T06:50:46;0.90;;;0.90;;
12689;SDS011;6409;56.294;14.480;2023-07-09T06:53:13;0.90;;;0.90;;
12689;SDS011;6409;56.294;14.480;2023-07-09T06:55:41;0.90;;;0.90;;
12689;SDS011;6409;56.294;14.480;2023-07-09T06:58:08;0.80;;;0.80;;
12689;SDS011;6409;56.294;14.480;2023-07-09T07:00:35;1.10;;;1.10;;
12689;SDS011;6409;56.294;14.480;2023-07-09T07:03:03;1.10;;;1.10;;
12689;SDS011;6409;56.294;14.480;2023-07-09T07:05:32;1.05;;;1.05;;
12689;SDS011;6409;56.294;14.480;2023-07-09T07:07:59;1.20;;;1.20;;
12689;SDS011;6409;56.294;14.480;2023-07-09T07:10:26;1.20;;;1.20;;
12689;SDS011;6409;56.294;14.480;2023-07-09T07:12:53;1.20;;;1.20;;
12689;SDS011;6409;56.294;14.480;2023-07-09T07:15:20;1.20;;;1.20;;
12689;SDS011;6409;56.294;14.480;2023-07-09T07:17:47;1.40;;;1.40;;
12689;SDS011;6409;56.294;14.480;2023-07-09T07:20:15;1.60;;;1.60;;
12689;SDS011;6409;56.294;14.480;2023-07-09T07:22:44;1.40;;;1.40;;
12689;SDS011;6409;56.294;14.480;2023-07-09T07:25:11;1.40;;;1.40;;
12689;SDS011;6409;56.294;14.480;2023-07-09T07:27:38;1.60;;;1.60;;
12689;SDS011;6409;56.294;14.480;2023-07-09T07:30:05;2.00;;;2.00;;
12689;SDS011;6409;56.294;14.480;2023-07-09T07:32:37;1.80;;;1.80;;
12689;SDS011;6409;56.294;14.480;2023-07-09T07:35:05;1.70;;;1.70;;
12689;SDS011;6409;56.294;14.480;2023-07-09T07:37:32;2.00;;;2.00;;
12689;SDS011;6409;56.294;14.480;2023-07-09T07:40:01;2.90;;;2.80;;
12689;SDS011;6409;56.294;14.480;2023-07-09T07:42:29;3.30;;;3.20;;
12689;SDS011;6409;56.294;14.480;2023-07-09T07:44:56;3.17;;;3.08;;
12689;SDS011;6409;56.294;14.480;2023-07-09T07:47:23;3.20;;;3.10;;
12689;SDS011;6409;56.294;14.480;2023-07-09T07:49:50;3.40;;;3.30;;
12689;SDS011;6409;56.294;14.480;2023-07-09T07:52:17;3.30;;;3.20;;
12689;SDS011;6409;56.294;14.480;2023-07-09T07:54:44;3.50;;;3.40;;
12689;SDS011;6409;56.294;14.480;2023-07-09T07:57:12;3.30;;;3.20;;
12689;SDS011;6409;56.294;14.480;2023-07-09T07:59:42;2.35;;;2.30;;
12689;SDS011;6409;56.294;14.480;2023-07-09T08:02:10;2.70;;;2.60;;
12689;SDS011;6409;56.294;14.480;2023-07-09T08:04:38;2.80;;;2.70;;
12689;SDS011;6409;56.294;14.480;2023-07-09T08:07:06;2.80;;;2.70;;
12689;SDS011;6409;56.294;14.480;2023-07-09T08:09:34;2.90;;;2.80;;
12689;SDS011;6409;56.294;14.480;2023-07-09T08:12:01;2.80;;;2.70;;
12689;SDS011;6409;56.294;14.480;2023-07-09T08:14:35;2.90;;;2.80;;
12689;SDS011;6409;56.294;14.480;2023-07-09T08:17:02;2.90;;;2.80;;
12689;SDS011;6409;56.294;14.480;2023-07-09T08:19:29;2.85;;;2.75;;
12689;SDS011;6409;56.294;14.480;2023-07-09T08:21:57;2.90;;;2.80;;
12689;SDS011;6409;56.294;14.480;2023-07-09T08:24:24;3.20;;;3.10;;
12689;SDS011;6409;56.294;14.480;2023-07-09T08:26:51;2.80;;;2.70;;
12689;SDS011;6409;56.294;14.480;2023-07-09T08:29:18;3.10;;;3.00;;
12689;SDS011;6409;56.294;14.480;2023-07-09T08:31:46;2.78;;;2.67;;
12689;SDS011;6409;56.294;14.480;2023-07-09T08:34:13;3.10;;;3.00;;
12689;SDS011;6409;56.294;14.480;2023-07-09T08:36:40;3.10;;;3.00;;
12689;SDS011;6409;56.294;14.480;2023-07-09T08:39:06;3.00;;;2.90;;
12689;SDS011;6409;56.294;14.480;2023-07-09T08:41:38;3.00;;;2.90;;
12689;SDS011;6409;56.294;14.480;2023-07-09T08:44:16;2.92;;;2.83;;
12689;SDS011;6409;56.294;14.480;2023-07-09T08:46:57;2.80;;;2.70;;
12689;SDS011;6409;56.294;14.480;2023-07-09T08:49:31;2.92;;;2.83;;
12689;SDS011;6409;56.294;14.480;2023-07-09T08:52:05;3.00;;;2.90;;
12689;SDS011;6409;56.294;14.480;2023-07-09T08:54:39;3.10;;;3.00;;
12689;SDS011;6409;56.294;14.480;2023-07-09T08:57:09;3.00;;;2.90;;
12689;SDS011;6409;56.294;14.480;2023-07-09T08:59:43;2.80;;;2.70;;
12689;SDS011;6409;56.294;14.480;2023-07-09T09:02:14;3.17;;;3.08;;
12689;SDS011;6409;56.294;14.480;2023-07-09T09:04:46;3.00;;;2.90;;
12689;SDS011;6409;56.294;14.480;2023-07-09T09:07:16;2.90;;;2.80;;
12689;SDS011;6409;56.294;14.480;2023-07-09T09:09:46;3.10;;;3.00;;
12689;SDS011;6409;56.294;14.480;2023-07-09T09:12:16;3.10;;;3.00;;
12689;SDS011;6409;56.294;14.480;2023-07-09T09:14:47;3.20;;;3.10;;
12689;SDS011;6409;56.294;14.480;2023-07-09T09:17:19;3.30;;;3.20;;
12689;SDS011;6409;56.294;14.480;2023-07-09T09:19:47;3.28;;;3.17;;
12689;SDS011;6409;56.294;14.480;2023-07-09T09:22:17;3.30;;;3.20;;
12689;SDS011;6409;56.294;14.480;2023-07-09T09:24:53;3.17;;;3.08;;
12689;SDS011;6409;56.294;14.480;2023-07-09T09:27:23;3.10;;;3.00;;
12689;SDS011;6409;56.294;14.480;2023-07-09T09:29:50;3.20;;;3.10;;
12689;SDS011;6409;56.294;14.480;2023-07-09T09:32:20;3.10;;;3.00;;
12689;SDS011;6409;56.294;14.480;2023-07-09T09:34:49;3.10;;;3.00;;
12689;SDS011;6409;56.294;14.480;2023-07-09T09:37:22;3.22;;;3.13;;
12689;SDS011;6409;56.294;14.480;2023-07-09T09:39:51;3.30;;;3.20;;
12689;SDS011;6409;56.294;14.480;2023-07-09T09:42:18;3.30;;;3.20;;
12689;SDS011;6409;56.294;14.480;2023-07-09T09:44:45;3.00;;;2.90;;
12689;SDS011;6409;56.294;14.480;2023-07-09T09:47:12;3.30;;;3.20;;
12689;SDS011;6409;56.294;14.480;2023-07-09T09:49:41;3.20;;;3.10;;
12689;SDS011;6409;56.294;14.480;2023-07-09T09:52:10;3.20;;;3.10;;
12689;SDS011;6409;56.294;14.480;2023-07-09T09:54:40;3.00;;;2.90;;
12689;SDS011;6409;56.294;14.480;2023-07-09T09:57:16;3.20;;;3.10;;
12689;SDS011;6409;56.294;14.480;2023-07-09T09:59:44;3.00;;;2.90;;
12689;SDS011;6409;56.294;14.480;2023-07-09T10:02:14;3.00;;;2.90;;
12689;SDS011;6409;56.294;14.480;2023-07-09T10:04:44;3.10;;;3.00;;
12689;SDS011;6409;56.294;14.480;2023-07-09T10:07:14;3.30;;;3.20;;
12689;SDS011;6409;56.294;14.480;2023-07-09T10:09:46;3.10;;;3.00;;
12689;SDS011;6409;56.294;14.480;2023-07-09T10:12:24;3.10;;;3.00;;
12689;SDS011;6409;56.294;14.480;2023-07-09T10:15:01;3.20;;;3.10;;
12689;SDS011;6409;56.294;14.480;2023-07-09T10:17:40;3.10;;;3.00;;
12689;SDS011;6409;56.294;14.480;2023-07-09T10:20:17;3.17;;;3.08;;
12689;SDS011;6409;56.294;14.480;2023-07-09T10:22:50;3.30;;;3.20;;
12689;SDS011;6409;56.294;14.480;2023-07-09T10:25:25;3.40;;;3.30;;
12689;SDS011;6409;56.294;14.480;2023-07-09T10:28:06;3.30;;;3.20;;
12689;SDS011;6409;56.294;14.480;2023-07-09T10:30:46;3.45;;;3.35;;
12689;SDS011;6409;56.294;14.480;2023-07-09T10:33:18;3.40;;;3.30;;
12689;SDS011;6409;56.294;14.480;2023-07-09T10:35:52;3.30;;;3.20;;
12689;SDS011;6409;56.294;14.480;2023-07-09T10:38:26;3.30;;;3.20;;
12689;SDS011;6409;56.294;14.480;2023-07-09T10:41:01;3.38;;;3.28;;
12689;SDS011;6409;56.294;14.480;2023-07-09T10:43:32;3.70;;;3.60;;
12689;SDS011;6409;56.294;14.480;2023-07-09T10:46:03;4.00;;;3.90;;
12689;SDS011;6409;56.294;14.480;2023-07-09T10:48:33;4.10;;;4.00;;
12689;SDS011;6409;56.294;14.480;2023-07-09T10:51:03;4.10;;;4.00;;
12689;SDS011;6409;56.294;14.480;2023-07-09T10:53:37;3.90;;;3.80;;
12689;SDS011;6409;56.294;14.480;2023-07-09T10:56:10;4.10;;;4.00;;
12689;SDS011;6409;56.294;14.480;2023-07-09T10:58:39;4.10;;;4.00;;
12689;SDS011;6409;56.294;14.480;2023-07-09T11:01:11;3.80;;;3.70;;
12689;SDS011;6409;56.294;14.480;2023-07-09T11:03:40;3.30;;;3.20;;
12689;SDS011;6409;56.294;14.480;2023-07-09T11:06:13;3.35;;;3.25;;
12689;SDS011;6409;56.294;14.480;2023-07-09T11:08:43;3.30;;;3.20;;
12689;SDS011;6409;56.294;14.480;2023-07-09T11:11:14;3.22;;;3.13;;
12689;SDS011;6409;56.294;14.480;2023-07-09T11:13:47;3.42;;;3.33;;
12689;SDS011;6409;56.294;14.480;2023-07-09T11:16:19;3.50;;;3.40;;
12689;SDS011;6409;56.294;14.480;2023-07-09T11:18:54;3.28;;;3.17;;
12689;SDS011;6409;56.294;14.480;2023-07-09T11:21:23;3.20;;;3.10;;
12689;SDS011;6409;56.294;14.480;2023-07-09T11:23:51;3.10;;;3.00;;
12689;SDS011;6409;56.294;14.480;2023-07-09T11:26:23;3.20;;;3.10;;
12689;SDS011;6409;56.294;14.480;2023-07-09T11:28:52;3.10;;;3.00;;
12689;SDS011;6409;56.294;14.480;2023-07-09T11:31:22;3.40;;;3.30;;
12689;SDS011;6409;56.294;14.480;2023-07-09T11:33:58;2.90;;;2.80;;
12689;SDS011;6409;56.294;14.480;2023-07-09T11:36:29;3.20;;;3.10;;
12689;SDS011;6409;56.294;14.480;2023-07-09T11:38:57;3.20;;;3.10;;
12689;SDS011;6409;56.294;14.480;2023-07-09T11:41:25;3.10;;;3.00;;
12689;SDS011;6409;56.294;14.480;2023-07-09T11:44:03;2.90;;;2.80;;
12689;SDS011;6409;56.294;14.480;2023-07-09T11:46:31;2.70;;;2.60;;
12689;SDS011;6409;56.294;14.480;2023-07-09T11:48:59;2.67;;;2.58;;
12689;SDS011;6409;56.294;14.480;2023-07-09T11:51:30;2.83;;;2.72;;
12689;SDS011;6409;56.294;14.480;2023-07-09T11:54:02;2.78;;;2.67;;
12689;SDS011;6409;56.294;14.480;2023-07-09T11:56:29;2.80;;;2.70;;
12689;SDS011;6409;56.294;14.480;2023-07-09T11:58:56;2.90;;;2.80;;
12689;SDS011;6409;56.294;14.480;2023-07-09T12:01:25;2.80;;;2.70;;
12689;SDS011;6409;56.294;14.480;2023-07-09T12:03:54;2.90;;;2.80;;
12689;SDS011;6409;56.294;14.480;2023-07-09T12:06:23;2.88;;;2.78;;
12689;SDS011;6409;56.294;14.480;2023-07-09T12:08:53;3.10;;;3.00;;
12689;SDS011;6409;56.294;14.480;2023-07-09T12:11:22;3.15;;;3.05;;
12689;SDS011;6409;56.294;14.480;2023-07-09T12:13:49;3.13;;;3.03;;
12689;SDS011;6409;56.294;14.480;2023-07-09T12:16:21;3.40;;;3.30;;
12689;SDS011;6409;56.294;14.480;2023-07-09T12:18:49;3.30;;;3.20;;
12689;SDS011;6409;56.294;14.480;2023-07-09T12:21:16;3.50;;;3.40;;
12689;SDS011;6409;56.294;14.480;2023-07-09T12:23:44;3.50;;;3.40;;
12689;SDS011;6409;56.294;14.480;2023-07-09T12:26:14;3.53;;;3.42;;
12689;SDS011;6409;56.294;14.480;2023-07-09T12:28:43;3.50;;;3.40;;
12689;SDS011;6409;56.294;14.480;2023-07-09T12:31:16;3.30;;;3.20;;
12689;SDS011;6409;56.294;14.480;2023-07-09T12:33:46;3.50;;;3.40;;
12689;SDS011;6409;56.294;14.480;2023-07-09T12:36:16;3.40;;;3.30;;
12689;SDS011;6409;56.294;14.480;2023-07-09T12:38:44;3.47;;;3.38;;
12689;SDS011;6409;56.294;14.480;2023-07-09T12:41:16;3.45;;;3.35;;
12689;SDS011;6409;56.294;14.480;2023-07-09T12:43:46;3.40;;;3.30;;
12689;SDS011;6409;56.294;14.480;2023-07-09T12:46:13;3.50;;;3.40;;
12689;SDS011;6409;56.294;14.480;2023-07-09T12:48:40;3.45;;;3.35;;
12689;SDS011;6409;56.294;14.480;2023-07-09T12:51:08;4.00;;;3.90;;
12689;SDS011;6409;56.294;14.480;2023-07-09T12:53:40;4.00;;;3.90;;
12689;SDS011;6409;56.294;14.480;2023-07-09T12:56:11;3.80;;;3.70;;
12689;SDS011;6409;56.294;14.480;2023-07-09T12:58:40;3.60;;;3.50;;
12689;SDS011;6409;56.294;14.480;2023-07-09T13:01:15;3.83;;;3.72;;
12689;SDS011;6409;56.294;14.480;2023-07-09T13:03:52;3.90;;;3.80;;
12689;SDS011;6409;56.294;14.480;2023-07-09T13:06:27;3.90;;;3.80;;
12689;SDS011;6409;56.294;14.480;2023-07-09T13:08:56;4.00;;;3.90;;
12689;SDS011;6409;56.294;14.480;2023-07-09T13:11:24;3.30;;;3.20;;
12689;SDS011;6409;56.294;14.480;2023-07-09T13:13:56;3.35;;;3.25;;
12689;SDS011;6409;56.294;14.480;2023-07-09T13:16:24;3.30;;;3.20;;
12689;SDS011;6409;56.294;14.480;2023-07-09T13:18:51;3.40;;;3.30;;
12689;SDS011;6409;56.294;14.480;2023-07-09T13:21:19;3.33;;;3.22;;
12689;SDS011;6409;56.294;14.480;2023-07-09T13:23:47;3.40;;;3.30;;
12689;SDS011;6409;56.294;14.480;2023-07-09T13:26:14;3.30;;;3.20;;
12689;SDS011;6409;56.294;14.480;2023-07-09T13:28:42;3.30;;;3.20;;
12689;SDS011;6409;56.294;14.480;2023-07-09T13:31:13;3.50;;;3.40;;
12689;SDS011;6409;56.294;14.480;2023-07-09T13:33:41;3.20;;;3.10;;
12689;SDS011;6409;56.294;14.480;2023-07-09T13:36:08;3.40;;;3.30;;
12689;SDS011;6409;56.294;14.480;2023-07-09T13:38:35;3.20;;;3.10;;
12689;SDS011;6409;56.294;14.480;2023-07-09T13:41:10;3.15;;;3.05;;
12689;SDS011;6409;56.294;14.480;2023-07-09T13:43:41;3.10;;;3.00;;
12689;SDS011;6409;56.294;14.480;2023-07-09T13:46:09;2.72;;;2.63;;
12689;SDS011;6409;56.294;14.480;2023-07-09T13:48:39;2.95;;;2.85;;
12689;SDS011;6409;56.294;14.480;2023-07-09T13:51:12;2.85;;;2.75;;
12689;SDS011;6409;56.294;14.480;2023-07-09T13:53:40;2.70;;;2.60;;
12689;SDS011;6409;56.294;14.480;2023-07-09T13:56:07;2.80;;;2.70;;
12689;SDS011;6409;56.294;14.480;2023-07-09T13:58:34;2.70;;;2.60;;
12689;SDS011;6409;56.294;14.480;2023-07-09T14:01:05;3.00;;;2.90;;
12689;SDS011;6409;56.294;14.480;2023-07-09T14:03:38;2.90;;;2.80;;
12689;SDS011;6409;56.294;14.480;2023-07-09T14:06:05;2.90;;;2.80;;
12689;SDS011;6409;56.294;14.480;2023-07-09T14:08:34;2.80;;;2.70;;
12689;SDS011;6409;56.294;14.480;2023-07-09T14:11:01;2.80;;;2.70;;
12689;SDS011;6409;56.294;14.480;2023-07-09T14:13:28;2.80;;;2.70;;
12689;SDS011;6409;56.294;14.480;2023-07-09T14:15:57;2.90;;;2.80;;
12689;SDS011;6409;56.294;14.480;2023-07-09T14:18:23;2.10;;;2.10;;
12689;SDS011;6409;56.294;14.480;2023-07-09T14:20:53;2.10;;;2.10;;
12689;SDS011;6409;56.294;14.480;2023-07-09T14:23:21;2.20;;;2.20;;
12689;SDS011;6409;56.294;14.480;2023-07-09T14:25:48;3.00;;;2.90;;
12689;SDS011;6409;56.294;14.480;2023-07-09T14:28:16;2.10;;;2.10;;
12689;SDS011;6409;56.294;14.480;2023-07-09T14:30:44;2.20;;;2.20;;
12689;SDS011;6409;56.294;14.480;2023-07-09T14:33:13;2.20;;;2.20;;
12689;SDS011;6409;56.294;14.480;2023-07-09T14:35:42;2.10;;;2.10;;
12689;SDS011;6409;56.294;14.480;2023-07-09T14:38:16;2.25;;;2.25;;
12689;SDS011;6409;56.294;14.480;2023-07-09T14:40:44;3.10;;;3.00;;
12689;SDS011;6409;56.294;14.480;2023-07-09T14:43:12;3.10;;;3.00;;
12689;SDS011;6409;56.294;14.480;2023-07-09T14:45:39;3.00;;;2.90;;
12689;SDS011;6409;56.294;14.480;2023-07-09T14:48:09;3.10;;;3.00;;
12689;SDS011;6409;56.294;14.480;2023-07-09T14:50:37;3.03;;;2.92;;
12689;SDS011;6409;56.294;14.480;2023-07-09T14:53:05;3.10;;;3.00;;
12689;SDS011;6409;56.294;14.480;2023-07-09T14:55:42;3.20;;;3.10;;
12689;SDS011;6409;56.294;14.480;2023-07-09T14:58:14;3.20;;;3.10;;